Athens, IN

10:09 AM EDT on September 19, 2014 (GMT -0400)
Logansport Municipal | Change Station
CLOSE
Current Station
Airport
Location: Logansport,
Elevation: 738 ft
Nearby Weather Stations

Elev 738 ft 40.71 °N, 86.37 °W | Updated 14 minutes ago

Clear
Clear
55 °F
Feels Like 55 °F
N
10
Wind Variable Wind from ESE

Today
High -- | Low -- °F
--% Chance of Precip.
Yesterday
High -- | Low -- °F
Precip. -- in
7:29 AM 7:46 PM
Waning Crescent, 19% visible
Pressure 30.21 in
Visibility 10.0 miles
Clouds Clear
Dew Point 52 °F
Humidity 88%
Rainfall 0.00 in
Snow Depth Not available.
UV 2 out of 12
Pollen 6.20 out of 12
Air Quality Not available.
Flu Activity Not available.
METAR KGGP 191355Z AUTO 12009KT 10SM CLR 13/11 A3021 RMK AO2

More Conditions Fewer Conditions

Pressure 30.21 in
Visibility 10.0 miles
Clouds Clear
Dew Point 52 °F
Humidity 88%
Rainfall 0.00 in
Snow Depth Not available.
UV 2 out of 12
Pollen 6.20 out of 12
Air Quality Not available.
Flu Activity Not available.
METAR KGGP 191355Z AUTO 12009KT 10SM CLR 13/11 A3021 RMK AO2

More Conditions Fewer Conditions

10-Day Weather Forecast

Almanac

Astronomy

Sep. 19, 2014 Rise Set
Actual Time 7:29 AM EDT 7:46 PM EDT
Civil Twilight 7:01 AM EDT 8:14 PM EDT
Nautical Twilight 6:29 AM EDT 8:46 PM EDT
Astronomical Twilight 5:56 AM EDT 9:19 PM EDT
Moon 3:11 AM EDT 5:16 PM EDT
Length of Visible Light 13h 12m
Length of Day
12h 17m
Tomorrow will be 2m 42s shorter.
Waning Crescent, 19% of the Moon is Illuminated
Today
Waning Crescent
Sep 24
New
Oct 1
First Quarter
Oct 8
Full
Oct 15
Last Quarter

Today's Extremes

State Highs State Lows

Community

WunderPhotos

Upload Photos

1,754,614 photos uploaded!

WunderBlogs® & News

Nearby

Snow Depth

Station Depth Elevation
No new snow has been reported.

Earthquake Activity

City Distance Mag. Time & Date
No recent earthquake activity has been reported nearby.
Minimum magnitude displayed is 2.5.

Coastal Water Temperatures

Place Temperature
No Stations Reporting

Nearby Weather Stations